Time;durP1;ratioP1;P1;durP2;ratioP2;P2;SDS_P1;SDS_P2;PMS_P1;PMS_P2;Temp;Humidity;BMP_temperature;BMP_pressure;BME280_temperature;BME280_humidity;BME280_pressure;Samples;Min_cycle;Max_cycle;Signal;HPM_P1;HPM_P2
2021/10/10 00:01:07;;;;;;;31.42;12.45;;;;;;;4.53;61.73;98775.09;1767086;81;21103;-72
2021/10/10 00:03:34;;;;;;;24.20;12.45;;;;;;;4.49;61.69;98773.34;1795343;79;21416;-72
2021/10/10 00:06:00;;;;;;;28.35;12.37;;;;;;;4.46;61.92;98770.67;1819531;79;21066;-73
2021/10/10 00:08:27;;;;;;;23.10;10.82;;;;;;;4.43;62.05;98775.47;1819510;78;20974;-72
2021/10/10 00:10:53;;;;;;;21.77;11.48;;;;;;;4.43;62.41;98773.27;1819542;78;21450;-73
2021/10/10 00:13:20;;;;;;;26.00;12.20;;;;;;;4.41;62.57;98777.22;1802529;78;20940;-72
2021/10/10 00:15:46;;;;;;;25.17;11.30;;;;;;;4.39;62.30;98774.14;1767174;81;21008;-73
2021/10/10 00:18:13;;;;;;;28.77;12.07;;;;;;;4.33;62.25;98773.64;1787563;80;21018;-73
2021/10/10 00:20:40;;;;;;;27.13;12.40;;;;;;;4.30;62.23;98778.85;1770201;80;21043;-72
2021/10/10 00:23:06;;;;;;;25.90;11.80;;;;;;;4.27;62.41;98774.91;1819389;79;20989;-72
2021/10/10 00:25:34;;;;;;;21.82;11.22;;;;;;;4.21;62.41;98767.86;1808254;79;21065;-72
2021/10/10 00:28:00;;;;;;;23.18;11.08;;;;;;;4.17;62.40;98766.95;1755630;82;21470;-72
2021/10/10 00:30:27;;;;;;;31.27;12.18;;;;;;;4.13;62.57;98764.27;1802192;79;21013;-72
2021/10/10 00:32:53;;;;;;;25.82;11.73;;;;;;;4.09;62.77;98760.33;1822521;79;21500;-72
2021/10/10 00:35:19;;;;;;;24.15;11.25;;;;;;;4.05;62.69;98763.79;1822008;79;21002;-72
2021/10/10 00:37:46;;;;;;;25.10;11.30;;;;;;;4.03;62.68;98764.64;1822505;79;21006;-72
2021/10/10 00:40:14;;;;;;;25.32;12.20;;;;;;;4.02;62.94;98766.82;1805290;79;21038;-72
2021/10/10 00:42:42;;;;;;;21.68;11.75;;;;;;;4.00;63.15;98766.80;1792591;80;21055;-72
2021/10/10 00:45:09;;;;;;;24.18;11.33;;;;;;;3.98;63.63;98759.33;1792768;80;21011;-73
2021/10/10 00:47:37;;;;;;;27.67;12.03;;;;;;;3.96;63.91;98771.12;1792677;80;21015;-72
2021/10/10 00:50:06;;;;;;;25.32;11.12;;;;;;;3.96;63.47;98767.63;1817814;79;20982;-73
2021/10/10 00:52:36;;;;;;;29.95;11.63;;;;;;;3.91;63.48;98759.70;1822423;79;20998;-72
2021/10/10 00:55:04;;;;;;;24.18;12.10;;;;;;;3.88;63.64;98762.31;1797341;79;21073;-72
2021/10/10 00:57:31;;;;;;;25.85;12.50;;;;;;;3.90;63.83;98759.72;1822443;79;21468;-72
2021/10/10 00:59:59;;;;;;;24.50;12.05;;;;;;;3.89;64.11;98757.93;1798910;79;20952;-73
2021/10/10 01:02:26;;;;;;;27.60;12.33;;;;;;;3.90;63.93;98757.09;1792652;80;21441;-72
2021/10/10 01:04:53;;;;;;;29.67;12.70;;;;;;;3.87;63.50;98757.94;1792604;80;20988;-72
2021/10/10 01:07:21;;;;;;;29.75;11.70;;;;;;;3.87;64.31;98759.25;1792709;80;21442;-72
2021/10/10 01:09:48;;;;;;;26.60;11.83;;;;;;;3.87;63.99;98756.63;1792616;80;20968;-72
2021/10/10 01:12:15;;;;;;;26.82;12.50;;;;;;;3.87;64.04;98751.80;1817910;79;21463;-72
2021/10/10 01:14:42;;;;;;;30.65;12.78;;;;;;;3.85;63.94;98754.41;1822391;79;21422;-73
2021/10/10 01:17:08;;;;;;;29.55;13.03;;;;;;;3.84;64.14;98752.66;1822445;79;21058;-72
2021/10/10 01:19:35;;;;;;;30.65;13.10;;;;;;;3.82;64.02;98754.39;1822436;79;21036;-73
2021/10/10 01:22:03;;;;;;;28.95;13.60;;;;;;;3.81;64.43;98756.13;1822499;79;20997;-73
2021/10/10 01:24:30;;;;;;;21.65;11.60;;;;;;;3.82;64.48;98755.25;1796919;79;21532;-73
2021/10/10 01:26:57;;;;;;;25.08;12.53;;;;;;;3.85;64.62;98753.09;1792722;80;20984;-72
2021/10/10 01:29:23;;;;;;;29.63;12.20;;;;;;;3.86;64.53;98750.05;1791522;79;20956;-73
2021/10/10 01:31:50;;;;;;;23.10;11.50;;;;;;;3.86;64.41;98751.36;1787214;80;21129;-72
2021/10/10 01:34:17;;;;;;;25.17;12.37;;;;;;;3.87;64.46;98753.11;1787340;79;21004;-73
2021/10/10 01:36:44;;;;;;;25.85;12.65;;;;;;;3.86;64.45;98758.78;1818563;79;20983;-73
2021/10/10 01:39:10;;;;;;;23.85;11.97;;;;;;;3.86;64.64;98757.92;1819808;79;21507;-72
2021/10/10 01:41:37;;;;;;;25.30;11.95;;;;;;;3.83;64.45;98754.84;1819435;78;21010;-73
2021/10/10 01:44:04;;;;;;;22.70;11.55;;;;;;;3.84;64.38;98757.90;1819708;79;21036;-73
2021/10/10 01:46:31;;;;;;;25.17;12.05;;;;;;;3.86;64.63;98756.61;1813334;79;21484;-73
2021/10/10 01:48:57;;;;;;;24.98;12.28;;;;;;;3.87;64.53;98752.70;1787603;80;21003;-73
2021/10/10 01:51:24;;;;;;;28.38;12.20;;;;;;;3.87;64.43;98749.19;1787492;80;21007;-72
2021/10/10 01:53:51;;;;;;;29.02;12.65;;;;;;;3.86;64.48;98753.98;1787441;80;20999;-72
2021/10/10 01:56:17;;;;;;;26.45;12.37;;;;;;;3.83;64.89;98750.45;1787637;80;20999;-72
2021/10/10 01:58:44;;;;;;;23.18;12.45;;;;;;;3.84;65.01;98743.48;1787440;79;20975;-72
2021/10/10 02:01:11;;;;;;;25.80;13.40;;;;;;;3.83;64.61;98745.20;1787396;80;21562;-72
2021/10/10 02:03:37;;;;;;;27.87;12.90;;;;;;;3.80;64.79;98744.30;1787610;80;21018;-72
2021/10/10 02:06:04;;;;;;;27.90;12.98;;;;;;;3.81;64.74;98742.13;1787594;80;20979;-72
2021/10/10 02:08:30;;;;;;;26.17;12.60;;;;;;;3.78;64.81;98742.98;1811883;79;20966;-72
2021/10/10 02:10:57;;;;;;;25.70;12.78;;;;;;;3.75;64.77;98739.45;1819742;79;20994;-72
2021/10/10 02:13:24;;;;;;;24.00;12.15;;;;;;;3.74;65.14;98735.08;1819839;78;20970;-73
2021/10/10 02:15:50;;;;;;;28.07;12.60;;;;;;;3.74;65.07;98733.31;1819546;79;21359;-72
2021/10/10 02:18:16;;;;;;;25.97;11.50;;;;;;;3.77;65.30;98735.09;1798739;78;21373;-72
2021/10/10 02:20:43;;;;;;;28.30;11.80;;;;;;;3.80;65.34;98734.71;1787692;79;20991;-72
2021/10/10 02:23:09;;;;;;;20.85;11.08;;;;;;;3.83;65.93;98734.72;1787560;80;20936;-73
2021/10/10 02:25:36;;;;;;;27.15;11.68;;;;;;;3.90;65.99;98736.97;1787204;80;21023;-73
2021/10/10 02:28:03;;;;;;;28.95;11.70;;;;;;;3.96;66.17;98731.77;1787647;80;20976;-73
2021/10/10 02:30:29;;;;;;;26.23;11.68;;;;;;;4.01;66.43;98728.31;1787704;79;20996;-73
2021/10/10 02:32:56;;;;;;;27.70;12.10;;;;;;;4.09;66.96;98731.48;1787655;80;21394;-73
2021/10/10 02:35:23;;;;;;;22.87;11.38;;;;;;;4.16;67.30;98726.27;1787540;80;20984;-73
2021/10/10 02:37:50;;;;;;;25.35;11.12;;;;;;;4.20;67.32;98722.36;1794047;79;20938;-73
2021/10/10 02:40:16;;;;;;;22.62;11.15;;;;;;;4.26;67.13;98721.54;1819756;78;21006;-72
2021/10/10 02:42:43;;;;;;;25.82;11.18;;;;;;;4.35;67.15;98722.92;1819555;78;20942;-73
2021/10/10 02:45:10;;;;;;;20.10;11.75;;;;;;;4.40;67.22;98725.56;1794404;79;21427;-73
2021/10/10 02:47:37;;;;;;;23.32;12.33;;;;;;;4.43;66.92;98725.59;1816322;78;21408;-72
2021/10/10 02:50:06;;;;;;;25.17;13.03;;;;;;;4.51;66.65;98719.51;1785603;80;21444;-72
2021/10/10 02:52:33;;;;;;;26.48;12.50;;;;;;;4.54;66.35;98723.48;1785856;80;20978;-73
2021/10/10 02:55:01;;;;;;;26.82;12.43;;;;;;;4.61;65.91;98722.67;1785864;80;21010;-73
2021/10/10 02:57:27;;;;;;;26.77;13.53;;;;;;;4.66;65.69;98717.01;1785780;80;20986;-73
2021/10/10 02:59:54;;;;;;;26.33;13.35;;;;;;;4.69;65.49;98714.84;1797063;79;21438;-73
2021/10/10 03:02:20;;;;;;;23.55;13.50;;;;;;;4.71;65.29;98714.39;1819649;78;21535;-73
2021/10/10 03:04:46;;;;;;;30.57;13.65;;;;;;;4.74;65.32;98718.36;1819593;78;20978;-73
2021/10/10 03:07:13;;;;;;;26.07;12.68;;;;;;;4.75;64.99;98714.44;1819676;79;20965;-73
2021/10/10 03:09:39;;;;;;;27.15;13.38;;;;;;;4.74;64.83;98713.97;1819687;78;21379;-73
2021/10/10 03:12:06;;;;;;;23.90;13.20;;;;;;;4.75;64.77;98707.88;1806148;79;20944;-73
2021/10/10 03:14:32;;;;;;;22.85;12.70;;;;;;;4.79;64.51;98716.64;1787651;79;20995;-73
2021/10/10 03:16:58;;;;;;;27.07;13.45;;;;;;;4.79;64.54;98707.45;1787592;80;20936;-73
2021/10/10 03:19:25;;;;;;;22.82;13.32;;;;;;;4.82;64.54;98715.32;1787723;80;20966;-73
2021/10/10 03:21:52;;;;;;;31.27;12.35;;;;;;;4.82;64.47;98709.21;1787479;80;21030;-73
2021/10/10 03:24:18;;;;;;;22.65;11.65;;;;;;;4.84;64.32;98710.97;1787500;79;20948;-73
2021/10/10 03:26:44;;;;;;;26.25;12.30;;;;;;;4.83;64.14;98713.59;1787455;80;21484;-73
2021/10/10 03:29:11;;;;;;;22.80;12.18;;;;;;;4.86;64.08;98704.42;1787307;80;21015;-73
2021/10/10 03:31:37;;;;;;;25.23;11.93;;;;;;;4.88;63.98;98700.04;1787412;80;20999;-73
2021/10/10 03:34:03;;;;;;;30.27;13.05;;;;;;;4.91;63.92;98696.13;1787232;80;21389;-73
2021/10/10 03:36:30;;;;;;;28.42;13.68;;;;;;;4.91;63.78;98691.30;1812064;79;21050;-73
2021/10/10 03:38:56;;;;;;;28.92;11.90;;;;;;;4.92;63.83;98695.25;1819619;79;21037;-73
2021/10/10 03:41:23;;;;;;;24.80;12.15;;;;;;;4.94;63.79;98685.61;1819728;78;21008;-73
2021/10/10 03:43:49;;;;;;;26.65;13.38;;;;;;;4.96;63.89;98692.19;1808697;78;21449;-73
2021/10/10 03:46:15;;;;;;;25.08;12.63;;;;;;;4.97;63.68;98688.69;1787394;80;21022;-73
2021/10/10 03:48:42;;;;;;;25.97;12.47;;;;;;;4.97;63.56;98681.70;1787486;80;20949;-73
2021/10/10 03:51:09;;;;;;;25.48;12.80;;;;;;;4.99;63.51;98675.14;1787446;80;20952;-73
2021/10/10 03:54:05;;;;;;;24.23;11.40;;;;;;;5.02;63.50;98689.16;1794292;79;21080;-73
2021/10/10 03:56:04;;;;;;;27.77;12.13;;;;;;;5.03;63.41;98672.97;1814525;79;20950;-73
2021/10/10 03:58:31;;;;;;;29.40;12.70;;;;;;;5.01;63.58;98675.59;1819639;79;21014;-72
2021/10/10 04:00:57;;;;;;;28.05;12.53;;;;;;;5.01;63.45;98672.96;1819475;78;21040;-73
2021/10/10 04:03:26;;;;;;;25.60;13.40;;;;;;;5.04;63.30;98674.72;1819581;79;21018;-73
2021/10/10 04:05:52;;;;;;;32.42;12.47;;;;;;;5.04;63.05;98676.03;1813408;79;21015;-73
2021/10/10 04:08:18;;;;;;;27.70;12.28;;;;;;;5.05;63.07;98672.95;1787460;80;21374;-73
2021/10/10 04:10:44;;;;;;;22.93;12.98;;;;;;;5.03;62.97;98670.34;1787475;80;21018;-73
2021/10/10 04:13:11;;;;;;;23.05;11.40;;;;;;;5.03;62.70;98675.60;1787347;80;21023;-73
2021/10/10 04:15:37;;;;;;;28.20;12.10;;;;;;;4.99;62.56;98673.38;1811934;79;21419;-73
2021/10/10 04:18:05;;;;;;;27.52;12.78;;;;;;;4.97;62.44;98672.92;1819446;79;21001;-73
2021/10/10 04:20:32;;;;;;;28.60;12.82;;;;;;;4.92;62.39;98677.28;1819518;78;21001;-73
2021/10/10 04:22:59;;;;;;;24.45;12.60;;;;;;;4.88;62.34;98677.72;1819556;79;20986;-73
2021/10/10 04:25:25;;;;;;;24.20;12.10;;;;;;;4.82;62.33;98679.86;1796992;78;21523;-73
2021/10/10 04:27:52;;;;;;;28.87;12.65;;;;;;;4.75;62.39;98677.67;1785748;80;20976;-73
2021/10/10 04:30:19;;;;;;;25.82;13.30;;;;;;;4.70;62.40;98678.51;1786742;80;21042;-73
2021/10/10 04:32:46;;;;;;;24.00;12.85;;;;;;;4.64;62.46;98680.66;1790310;80;21002;-73
2021/10/10 04:35:13;;;;;;;29.80;13.50;;;;;;;4.56;62.55;98681.04;1790150;80;21384;-73
2021/10/10 04:37:40;;;;;;;29.50;13.10;;;;;;;4.50;62.73;98687.15;1790871;79;21392;-73
2021/10/10 04:40:09;;;;;;;25.85;12.37;;;;;;;4.44;62.85;98681.87;1790228;80;21387;-73
2021/10/10 04:42:37;;;;;;;23.25;12.35;;;;;;;4.39;63.13;98678.34;1790253;80;21408;-73
2021/10/10 04:45:06;;;;;;;26.17;12.40;;;;;;;4.30;63.25;98683.07;1790819;79;20978;-73
2021/10/10 04:47:32;;;;;;;28.83;12.37;;;;;;;4.24;63.22;98685.23;1790306;80;21349;-73
2021/10/10 04:49:59;;;;;;;28.07;12.63;;;;;;;4.20;63.38;98683.45;1790227;80;20971;-73
2021/10/10 04:52:26;;;;;;;23.83;12.45;;;;;;;4.14;63.59;98686.90;1790181;80;21064;-73
2021/10/10 04:54:52;;;;;;;26.20;12.23;;;;;;;4.09;63.82;98684.26;1791975;79;20948;-73
2021/10/10 04:57:19;;;;;;;29.52;13.00;;;;;;;4.05;63.93;98689.45;1794682;80;20991;-73
2021/10/10 04:59:51;;;;;;;26.77;12.58;;;;;;;4.03;63.85;98689.43;1794709;80;21038;-73
2021/10/10 05:02:21;;;;;;;29.67;13.35;;;;;;;3.98;63.87;98689.83;1794792;80;20959;-73
2021/10/10 05:04:49;;;;;;;26.82;12.05;;;;;;;3.94;64.10;98694.17;1794419;80;21412;-73
2021/10/10 05:07:18;;;;;;;26.93;13.18;;;;;;;3.90;64.06;98696.32;1807532;79;21006;-73
2021/10/10 05:09:45;;;;;;;28.45;12.68;;;;;;;3.89;64.15;98698.51;1824281;79;20969;-73
2021/10/10 05:12:13;;;;;;;26.40;12.50;;;;;;;3.90;64.79;98695.02;1824444;78;21033;-73
2021/10/10 05:14:40;;;;;;;23.85;12.35;;;;;;;3.90;64.94;98695.02;1824324;78;20977;-73
2021/10/10 05:17:07;;;;;;;30.23;13.48;;;;;;;3.94;64.43;98693.28;1824195;79;20998;-73
2021/10/10 05:19:34;;;;;;;25.55;12.05;;;;;;;3.94;64.43;98697.22;1811843;78;21018;-73
2021/10/10 05:22:02;;;;;;;25.08;12.98;;;;;;;3.95;64.54;98698.55;1795079;80;22115;-73
2021/10/10 05:24:28;;;;;;;25.37;12.73;;;;;;;4.01;64.93;98695.53;1794668;80;20994;-73
2021/10/10 05:26:55;;;;;;;27.42;13.20;;;;;;;4.04;64.84;98693.84;1795019;80;21413;-73
2021/10/10 05:29:21;;;;;;;24.52;13.50;;;;;;;4.11;64.63;98705.23;1818482;79;20990;-73
2021/10/10 05:31:48;;;;;;;30.82;14.13;;;;;;;4.13;64.39;98696.06;1824333;78;20993;-73
2021/10/10 05:34:14;;;;;;;30.75;14.60;;;;;;;4.17;64.56;98698.74;1824578;79;21455;-74
2021/10/10 05:36:40;;;;;;;37.23;15.43;;;;;;;4.24;64.49;98704.92;1824307;78;21009;-71
2021/10/10 05:39:07;;;;;;;35.30;14.45;;;;;;;4.28;64.44;98696.17;1803414;79;20995;-72
2021/10/10 05:41:34;;;;;;;29.30;14.50;;;;;;;4.35;64.76;98698.41;1794806;80;21009;-72
2021/10/10 05:44:01;;;;;;;27.55;14.73;;;;;;;4.44;64.65;98701.56;1794746;80;21018;-72
2021/10/10 05:46:28;;;;;;;28.95;13.70;;;;;;;4.49;64.35;98702.01;1802786;79;21001;-73
2021/10/10 05:48:54;;;;;;;25.05;14.13;;;;;;;4.58;64.48;98697.70;1824415;78;20998;-73
2021/10/10 05:51:21;;;;;;;33.23;14.47;;;;;;;4.65;64.41;98697.30;1824315;79;21474;-73
2021/10/10 05:53:47;;;;;;;30.43;14.13;;;;;;;4.73;64.25;98691.21;1824354;78;21021;-73
2021/10/10 05:56:16;;;;;;;32.65;13.83;;;;;;;4.80;64.04;98694.75;1819419;79;21002;-73
2021/10/10 05:58:43;;;;;;;31.75;14.63;;;;;;;4.86;63.89;98693.45;1794835;80;21015;-73
2021/10/10 06:01:10;;;;;;;32.67;14.53;;;;;;;4.93;63.83;98690.43;1794888;80;21034;-73
2021/10/10 06:03:37;;;;;;;26.82;13.78;;;;;;;5.02;63.77;98688.27;1794740;80;21018;-73
2021/10/10 06:06:04;;;;;;;31.07;15.23;;;;;;;5.13;63.83;98683.06;1794677;80;20962;-73
2021/10/10 06:08:31;;;;;;;30.80;15.83;;;;;;;5.20;63.76;98683.55;1801219;79;21044;-73
2021/10/10 06:10:57;;;;;;;35.10;16.35;;;;;;;5.31;63.65;98680.92;1824407;79;21008;-73
2021/10/10 06:13:24;;;;;;;30.37;13.98;;;;;;;5.38;63.50;98684.45;1824270;78;21081;-73
2021/10/10 06:15:51;;;;;;;28.42;14.60;;;;;;;5.49;63.29;98680.55;1824392;78;20993;-73
2021/10/10 06:18:18;;;;;;;30.25;13.60;;;;;;;5.58;63.27;98679.25;1800145;79;20999;-73
2021/10/10 06:20:45;;;;;;;31.30;13.60;;;;;;;5.65;63.09;98679.69;1794746;80;21416;-73
2021/10/10 06:23:11;;;;;;;27.00;15.00;;;;;;;5.75;63.01;98675.33;1796729;79;21018;-73
2021/10/10 06:25:39;;;;;;;29.75;15.25;;;;;;;5.82;62.65;98677.53;1804100;78;21005;-73
2021/10/10 06:28:05;;;;;;;28.32;14.40;;;;;;;5.90;62.58;98677.07;1811614;78;21015;-73
2021/10/10 06:30:32;;;;;;;30.62;13.62;;;;;;;5.99;62.47;98672.27;1793846;79;20983;-73
2021/10/10 06:32:58;;;;;;;32.15;15.00;;;;;;;6.06;62.21;98666.57;1787288;80;20976;-73
2021/10/10 06:35:25;;;;;;;26.50;14.85;;;;;;;6.12;62.08;98670.97;1787636;80;21055;-73
2021/10/10 06:37:51;;;;;;;29.15;14.90;;;;;;;6.19;61.78;98677.54;1795896;79;20998;-73
2021/10/10 06:40:18;;;;;;;32.50;15.45;;;;;;;6.26;61.91;98673.16;1819649;78;20982;-73
2021/10/10 06:42:47;;;;;;;29.45;15.25;;;;;;;6.29;61.63;98663.05;1819507;78;21002;-73
2021/10/10 06:45:13;;;;;;;32.35;15.90;;;;;;;6.36;61.46;98657.34;1819607;78;21017;-73
2021/10/10 06:47:40;;;;;;;30.50;16.57;;;;;;;6.43;61.34;98665.23;1819603;79;21068;-73
2021/10/10 06:50:07;;;;;;;36.55;17.77;;;;;;;6.46;60.77;98671.81;1818619;79;21386;-73
2021/10/10 06:52:34;;;;;;;31.80;16.82;;;;;;;6.53;61.15;98670.48;1819638;78;21427;-73
2021/10/10 06:55:00;;;;;;;37.65;16.73;;;;;;;6.58;59.85;98669.59;1819835;78;21014;-73
2021/10/10 06:57:29;;;;;;;29.52;17.20;;;;;;;6.62;60.65;98665.19;1819637;78;21016;-73
2021/10/10 06:59:59;;;;;;;32.93;16.70;;;;;;;6.68;60.25;98664.30;1790937;78;21015;-73
2021/10/10 07:02:25;;;;;;;34.70;16.65;;;;;;;6.78;60.23;98663.82;1787332;80;21038;-73
2021/10/10 07:04:52;;;;;;;32.23;16.85;;;;;;;6.86;59.80;98669.95;1787395;80;21031;-73
2021/10/10 07:07:19;;;;;;;30.23;16.20;;;;;;;6.93;59.78;98662.91;1787463;80;20956;-73
2021/10/10 07:09:45;;;;;;;29.07;16.02;;;;;;;6.99;58.67;98664.19;1813338;79;21407;-73
2021/10/10 07:12:12;;;;;;;29.23;16.40;;;;;;;7.06;59.53;98664.58;1819751;79;21387;-73
2021/10/10 07:14:38;;;;;;;29.50;14.85;;;;;;;7.16;59.46;98669.38;1819704;78;20994;-73
2021/10/10 07:17:05;;;;;;;28.38;14.63;;;;;;;7.23;59.17;98667.13;1819713;79;20973;-73
2021/10/10 07:19:38;;;;;;;27.17;14.23;;;;;;;7.32;58.92;98662.27;1819825;79;21436;-73
2021/10/10 07:22:12;;;;;;;31.30;14.80;;;;;;;7.44;58.91;98653.84;1817605;79;21022;-73
2021/10/10 07:27:13;;;;;;;26.42;12.82;;;;;;;7.73;58.12;98664.19;1819736;78;20982;-73
2021/10/10 07:29:40;;;;;;;27.13;13.40;;;;;;;7.89;57.85;98656.18;1819551;78;21014;-73
2021/10/10 07:32:06;;;;;;;21.95;12.10;;;;;;;7.99;56.65;98656.53;1822345;78;21458;-73
2021/10/10 07:34:33;;;;;;;23.22;11.55;;;;;;;8.01;56.92;98656.06;1798152;78;20952;-73
2021/10/10 07:36:59;;;;;;;27.90;10.82;;;;;;;8.04;56.98;98651.20;1794866;80;20987;-73
2021/10/10 07:39:26;;;;;;;21.93;10.95;;;;;;;8.08;56.94;98649.41;1794865;80;21003;-73
2021/10/10 07:41:54;;;;;;;18.48;9.80;;;;;;;8.15;56.99;98642.73;1794821;80;21034;-73
2021/10/10 07:44:23;;;;;;;24.90;10.88;;;;;;;8.21;56.69;98639.16;1757106;82;21110;-73
2021/10/10 07:46:56;;;;;;;37.13;18.65;;;;;;;8.24;56.58;98636.51;1786423;80;21433;-73
2021/10/10 07:49:18;;;;;;;25.95;12.65;;;;;;;8.26;56.49;98633.39;1761547;81;21421;-73
2021/10/10 07:51:44;;;;;;;21.33;10.93;;;;;;;8.30;56.00;98628.95;1790465;80;21024;-73
2021/10/10 07:54:11;;;;;;;22.32;9.68;;;;;;;8.34;56.31;98635.95;1762715;81;21480;-73
2021/10/10 07:56:37;;;;;;;23.57;11.40;;;;;;;8.37;56.34;98635.94;1790322;80;20978;-73
2021/10/10 07:59:04;;;;;;;28.45;11.40;;;;;;;8.40;55.37;98632.38;1789763;80;20996;-73
2021/10/10 08:01:30;;;;;;;22.27;11.57;;;;;;;8.42;55.65;98635.88;1795418;79;21064;-73
2021/10/10 08:03:58;;;;;;;23.73;11.63;;;;;;;8.47;55.91;98635.84;1795585;80;21030;-73
2021/10/10 08:06:24;;;;;;;25.25;12.58;;;;;;;8.51;56.00;98630.49;1824170;79;20992;-73
2021/10/10 08:08:50;;;;;;;21.55;11.75;;;;;;;8.58;55.70;98638.83;1823396;79;20996;-73
2021/10/10 08:11:17;;;;;;;21.00;10.93;;;;;;;8.63;54.85;98632.62;1791860;80;20974;-73
2021/10/10 08:13:43;;;;;;;22.50;11.10;;;;;;;8.69;55.57;98629.91;1764061;81;20949;-73
2021/10/10 08:16:10;;;;;;;28.92;11.65;;;;;;;8.76;55.46;98628.06;1794657;80;20948;-73
2021/10/10 08:18:36;;;;;;;19.77;10.48;;;;;;;8.78;55.29;98627.16;1783272;80;21031;-74
2021/10/10 08:21:02;;;;;;;24.32;10.88;;;;;;;8.79;55.29;98627.58;1824214;78;21413;-73
2021/10/10 08:23:29;;;;;;;31.45;11.60;;;;;;;8.81;54.57;98631.06;1824239;78;20954;-73
2021/10/10 08:25:55;;;;;;;20.32;10.03;;;;;;;8.83;54.99;98626.65;1824270;79;21421;-73
2021/10/10 08:28:24;;;;;;;22.85;10.75;;;;;;;8.85;55.08;98622.67;1808246;78;20928;-73
2021/10/10 08:30:50;;;;;;;19.30;9.93;;;;;;;8.91;55.10;98623.02;1792084;79;20968;-74
2021/10/10 08:33:18;;;;;;;14.43;8.45;;;;;;;8.98;54.71;98623.39;1764257;81;21012;-73
2021/10/10 08:35:44;;;;;;;12.88;6.30;;;;;;;9.03;53.68;98623.31;1794626;80;20987;-73
2021/10/10 08:38:11;;;;;;;9.48;5.87;;;;;;;9.09;53.07;98611.33;1792021;80;20975;-73
2021/10/10 08:40:37;;;;;;;11.10;5.78;;;;;;;9.11;52.22;98611.73;1778680;80;21409;-73
2021/10/10 08:43:06;;;;;;;17.55;5.35;;;;;;;9.14;52.31;98604.67;1766646;80;20996;-73
2021/10/10 08:45:34;;;;;;;12.05;4.60;;;;;;;9.19;52.32;98598.42;1795447;80;20987;-74
2021/10/10 08:48:01;;;;;;;8.38;4.03;;;;;;;9.25;51.22;98605.38;1795382;80;21059;-73
2021/10/10 08:50:32;;;;;;;10.60;4.40;;;;;;;9.31;49.46;98594.73;1795578;80;20992;-73
2021/10/10 08:53:01;;;;;;;9.70;3.98;;;;;;;9.38;50.17;98588.88;1794586;80;20971;-73
2021/10/10 08:55:31;;;;;;;8.63;3.45;;;;;;;9.43;50.34;98588.83;1795409;80;21007;-73
2021/10/10 08:58:00;;;;;;;9.05;3.77;;;;;;;9.49;48.33;98588.72;1795639;80;21445;-73
2021/10/10 09:00:33;;;;;;;12.37;3.60;;;;;;;9.55;47.96;98582.47;1824196;78;20994;-73
2021/10/10 09:03:01;;;;;;;7.83;3.05;;;;;;;9.62;47.13;98588.07;1799831;79;20994;-72
2021/10/10 09:05:28;;;;;;;9.48;4.58;;;;;;;9.69;46.87;98579.59;1794610;80;21042;-72
2021/10/10 09:07:55;;;;;;;8.68;3.45;;;;;;;9.73;47.12;98577.31;1729523;82;20980;-72
2021/10/10 09:10:31;;;;;;;5.90;3.15;;;;;;;9.79;46.29;98571.91;1755277;80;21437;-72
2021/10/10 09:13:16;;;;;;;10.70;3.67;;;;;;;9.83;46.26;98574.94;1793721;80;21469;-72
2021/10/10 09:15:49;;;;;;;6.95;3.30;;;;;;;9.90;45.79;98573.94;1795358;80;21063;-72
2021/10/10 09:18:16;;;;;;;8.13;3.85;;;;;;;9.97;45.98;98574.68;1795402;80;21081;-72
2021/10/10 09:20:47;;;;;;;12.78;3.58;;;;;;;10.04;45.71;98573.69;1808280;79;21353;-72
2021/10/10 09:23:25;;;;;;;8.70;4.25;;;;;;;10.10;44.73;98567.86;1757075;82;21031;-72
2021/10/10 09:25:59;;;;;;;7.05;3.37;;;;;;;10.14;44.92;98561.13;1730647;83;21493;-72
2021/10/10 09:28:28;;;;;;;9.58;3.55;;;;;;;10.22;45.03;98560.13;1757298;82;21007;-73
2021/10/10 09:30:59;;;;;;;9.73;3.60;;;;;;;10.30;45.22;98555.57;1730573;82;21009;-72
2021/10/10 09:33:54;;;;;;;10.55;3.62;;;;;;;10.39;44.55;98553.18;1790100;80;20964;-72
2021/10/10 09:36:27;;;;;;;9.10;4.00;;;;;;;10.47;43.92;98551.73;1793684;80;21002;-73
2021/10/10 09:39:10;;;;;;;11.40;4.12;;;;;;;10.62;43.81;98556.72;1771238;81;20994;-73
2021/10/10 09:41:46;;;;;;;9.48;4.33;;;;;;;10.82;43.02;98558.95;1794002;80;21273;-73
2021/10/10 09:44:25;;;;;;;9.40;3.72;;;;;;;11.06;41.49;98551.38;1773397;79;21451;-73
2021/10/10 09:46:51;;;;;;;7.92;3.87;;;;;;;11.29;42.09;98547.30;1804776;79;21409;-73
2021/10/10 09:49:30;;;;;;;8.45;3.65;;;;;;;11.54;41.98;98552.48;1804729;79;21409;-73
2021/10/10 09:52:11;;;;;;;11.80;4.05;;;;;;;11.73;40.98;98543.15;1804610;79;21480;-73
2021/10/10 09:54:58;;;;;;;11.22;3.70;;;;;;;11.94;40.28;98543.50;1804809;79;20991;-73
2021/10/10 09:57:32;;;;;;;9.55;3.62;;;;;;;12.12;41.14;98535.96;1803682;79;20991;-73
2021/10/10 09:59:58;;;;;;;7.65;3.80;;;;;;;12.29;41.07;98531.51;1805181;79;21034;-73
2021/10/10 10:02:39;;;;;;;11.48;3.85;;;;;;;12.46;41.22;98529.70;1804729;79;20960;-73
2021/10/10 10:05:06;;;;;;;8.73;3.65;;;;;;;12.61;41.47;98516.44;1804527;79;21063;-73
2021/10/10 10:07:35;;;;;;;10.23;3.60;;;;;;;12.77;41.19;98525.28;1803490;79;20998;-73
2021/10/10 10:10:01;;;;;;;9.78;3.60;;;;;;;12.83;39.94;98524.23;1804695;79;21469;-73
2021/10/10 10:12:30;;;;;;;8.63;3.90;;;;;;;12.96;40.47;98520.73;1804691;79;20972;-73
2021/10/10 10:14:59;;;;;;;8.55;3.77;;;;;;;13.05;40.48;98519.98;1804723;79;21437;-73
2021/10/10 10:17:27;;;;;;;9.80;3.90;;;;;;;13.17;40.19;98518.72;1773238;79;21003;-73
2021/10/10 10:19:58;;;;;;;9.58;3.77;;;;;;;13.32;40.13;98523.14;1771491;81;20936;-73
2021/10/10 10:22:27;;;;;;;7.12;3.75;;;;;;;13.49;38.71;98513.78;1794029;80;21017;-73
2021/10/10 10:24:55;;;;;;;8.05;3.75;;;;;;;13.68;39.75;98512.70;1747643;81;20943;-74
2021/10/10 10:27:22;;;;;;;9.40;3.67;;;;;;;14.03;39.30;98509.75;1826533;78;21005;-73
2021/10/10 10:29:52;;;;;;;14.95;4.80;;;;;;;14.36;37.60;98503.64;1804773;79;20988;-74
2021/10/10 10:32:20;;;;;;;8.05;4.35;;;;;;;14.74;36.76;98500.94;1801314;79;21425;-73
2021/10/10 10:34:59;;;;;;;8.23;4.28;;;;;;;15.04;37.05;98504.21;1795624;80;21456;-73
2021/10/10 10:37:49;;;;;;;9.50;4.40;;;;;;;15.41;34.04;98503.67;1789623;80;21411;-74
2021/10/10 10:40:27;;;;;;;10.18;4.60;;;;;;;16.06;36.99;98495.61;1762463;81;21018;-74
2021/10/10 10:42:56;;;;;;;9.90;4.12;;;;;;;16.91;35.35;98494.48;1786295;80;20990;-74
2021/10/10 10:45:38;;;;;;;8.18;3.58;;;;;;;17.57;34.04;98494.45;1762841;81;21022;-73
2021/10/10 10:48:09;;;;;;;8.00;4.10;;;;;;;18.16;31.19;98489.25;1790240;80;21013;-73
2021/10/10 10:50:42;;;;;;;10.55;3.98;;;;;;;18.81;31.56;98491.11;1763916;80;21015;-74
2021/10/10 10:53:13;;;;;;;7.95;3.67;;;;;;;19.58;31.24;98494.91;1794845;80;21475;-74
2021/10/10 10:55:48;;;;;;;10.98;4.62;;;;;;;20.36;30.06;98484.45;1792090;80;20952;-74
2021/10/10 10:58:16;;;;;;;7.58;3.95;;;;;;;21.17;29.16;98485.27;1763643;81;20984;-74
2021/10/10 11:00:51;;;;;;;11.25;4.65;;;;;;;21.68;28.61;98479.19;1791954;80;21377;-74
2021/10/10 11:03:28;;;;;;;8.75;4.17;;;;;;;21.96;28.19;98477.81;1764390;80;20996;-74
2021/10/10 11:05:57;;;;;;;8.68;4.33;;;;;;;22.40;27.75;98468.44;1794831;80;21011;-74
2021/10/10 11:08:38;;;;;;;8.25;5.05;;;;;;;22.88;26.63;98469.55;1792040;80;21413;-73
2021/10/10 11:11:18;;;;;;;9.73;4.90;;;;;;;23.73;25.81;98464.25;1764358;81;20992;-74
2021/10/10 11:14:02;;;;;;;10.78;4.85;;;;;;;24.19;25.80;98457.62;1794873;79;21430;-74
2021/10/10 11:16:32;;;;;;;11.28;4.90;;;;;;;24.44;23.06;98452.95;1792045;80;20947;-74
2021/10/10 11:19:10;;;;;;;10.55;4.90;;;;;;;25.15;23.65;98452.67;1764343;81;21044;-74
2021/10/10 11:21:43;;;;;;;9.75;5.15;;;;;;;25.53;21.00;98454.52;1792132;80;21031;-73
2021/10/10 11:24:19;;;;;;;10.15;5.37;;;;;;;26.03;21.83;98437.27;1764569;81;21012;-74
2021/10/10 11:26:49;;;;;;;10.30;4.78;;;;;;;25.64;22.16;98444.63;1811032;79;21013;-74
2021/10/10 11:29:19;;;;;;;9.03;4.55;;;;;;;25.00;22.06;98443.11;1768621;80;21058;-74
2021/10/10 11:31:49;;;;;;;9.48;4.75;;;;;;;24.17;23.22;98440.16;1791972;78;21042;-74
2021/10/10 11:34:19;;;;;;;8.00;4.22;;;;;;;22.79;23.52;98449.95;1764340;81;21434;-73